sensor_id;sensor_type;location;lat;lon;timestamp;P1;durP1;ratioP1;P2;durP2;ratioP2
9178;SDS011;4624;48.126;11.546;2022-12-16T00:01:31;12.63;;;9.03;;
9178;SDS011;4624;48.126;11.546;2022-12-16T00:04:00;12.70;;;9.63;;
9178;SDS011;4624;48.126;11.546;2022-12-16T00:06:29;15.03;;;10.00;;
9178;SDS011;4624;48.126;11.546;2022-12-16T00:08:57;15.27;;;9.67;;
9178;SDS011;4624;48.126;11.546;2022-12-16T00:11:24;14.60;;;9.67;;
9178;SDS011;4624;48.126;11.546;2022-12-16T00:13:51;13.27;;;9.80;;
9178;SDS011;4624;48.126;11.546;2022-12-16T00:16:19;13.43;;;9.67;;
9178;SDS011;4624;48.126;11.546;2022-12-16T00:18:46;12.60;;;8.93;;
9178;SDS011;4624;48.126;11.546;2022-12-16T00:21:14;15.40;;;10.37;;
9178;SDS011;4624;48.126;11.546;2022-12-16T00:23:42;15.20;;;10.20;;
9178;SDS011;4624;48.126;11.546;2022-12-16T00:26:10;14.20;;;9.57;;
9178;SDS011;4624;48.126;11.546;2022-12-16T00:28:37;16.17;;;10.50;;
9178;SDS011;4624;48.126;11.546;2022-12-16T00:31:05;13.57;;;9.03;;
9178;SDS011;4624;48.126;11.546;2022-12-16T00:33:32;13.83;;;9.17;;
9178;SDS011;4624;48.126;11.546;2022-12-16T00:35:59;15.00;;;8.97;;
9178;SDS011;4624;48.126;11.546;2022-12-16T00:38:28;12.40;;;9.33;;
9178;SDS011;4624;48.126;11.546;2022-12-16T00:40:54;13.53;;;9.23;;
9178;SDS011;4624;48.126;11.546;2022-12-16T00:43:21;12.60;;;8.50;;
9178;SDS011;4624;48.126;11.546;2022-12-16T00:45:48;16.30;;;9.67;;
9178;SDS011;4624;48.126;11.546;2022-12-16T00:48:15;12.97;;;8.13;;
9178;SDS011;4624;48.126;11.546;2022-12-16T00:50:43;12.53;;;8.23;;
9178;SDS011;4624;48.126;11.546;2022-12-16T00:53:12;12.27;;;8.83;;
9178;SDS011;4624;48.126;11.546;2022-12-16T00:55:40;14.00;;;9.03;;
9178;SDS011;4624;48.126;11.546;2022-12-16T00:58:07;10.93;;;7.93;;
9178;SDS011;4624;48.126;11.546;2022-12-16T01:00:34;12.80;;;8.70;;
9178;SDS011;4624;48.126;11.546;2022-12-16T01:03:01;12.33;;;8.63;;
9178;SDS011;4624;48.126;11.546;2022-12-16T01:05:28;11.60;;;8.37;;
9178;SDS011;4624;48.126;11.546;2022-12-16T01:07:55;12.83;;;8.77;;
9178;SDS011;4624;48.126;11.546;2022-12-16T01:10:22;11.67;;;7.83;;
9178;SDS011;4624;48.126;11.546;2022-12-16T01:12:51;12.87;;;7.90;;
9178;SDS011;4624;48.126;11.546;2022-12-16T01:15:18;12.80;;;8.80;;
9178;SDS011;4624;48.126;11.546;2022-12-16T01:17:44;12.30;;;8.57;;
9178;SDS011;4624;48.126;11.546;2022-12-16T01:20:11;14.53;;;8.53;;
9178;SDS011;4624;48.126;11.546;2022-12-16T01:22:39;11.97;;;7.83;;
9178;SDS011;4624;48.126;11.546;2022-12-16T01:25:06;12.43;;;8.27;;
9178;SDS011;4624;48.126;11.546;2022-12-16T01:27:34;11.13;;;8.00;;
9178;SDS011;4624;48.126;11.546;2022-12-16T01:30:03;10.23;;;7.43;;
9178;SDS011;4624;48.126;11.546;2022-12-16T01:32:30;10.47;;;7.43;;
9178;SDS011;4624;48.126;11.546;2022-12-16T01:34:57;10.93;;;7.40;;
9178;SDS011;4624;48.126;11.546;2022-12-16T01:37:24;12.03;;;8.27;;
9178;SDS011;4624;48.126;11.546;2022-12-16T01:39:51;10.47;;;7.73;;
9178;SDS011;4624;48.126;11.546;2022-12-16T01:42:19;11.00;;;8.23;;
9178;SDS011;4624;48.126;11.546;2022-12-16T01:44:48;10.80;;;7.53;;
9178;SDS011;4624;48.126;11.546;2022-12-16T01:47:17;12.30;;;8.10;;
9178;SDS011;4624;48.126;11.546;2022-12-16T01:49:47;10.10;;;7.80;;
9178;SDS011;4624;48.126;11.546;2022-12-16T01:52:18;10.00;;;7.43;;
9178;SDS011;4624;48.126;11.546;2022-12-16T01:54:49;11.47;;;7.97;;
9178;SDS011;4624;48.126;11.546;2022-12-16T01:57:20;12.83;;;8.07;;
9178;SDS011;4624;48.126;11.546;2022-12-16T01:59:52;9.57;;;7.47;;
9178;SDS011;4624;48.126;11.546;2022-12-16T02:02:22;11.03;;;7.97;;
9178;SDS011;4624;48.126;11.546;2022-12-16T02:04:49;12.37;;;8.17;;
9178;SDS011;4624;48.126;11.546;2022-12-16T02:07:33;10.93;;;7.67;;
9178;SDS011;4624;48.126;11.546;2022-12-16T02:10:00;10.00;;;7.40;;
9178;SDS011;4624;48.126;11.546;2022-12-16T02:12:29;11.00;;;7.70;;
9178;SDS011;4624;48.126;11.546;2022-12-16T02:15:06;10.67;;;7.73;;
9178;SDS011;4624;48.126;11.546;2022-12-16T02:17:44;11.97;;;7.50;;
9178;SDS011;4624;48.126;11.546;2022-12-16T02:20:43;12.93;;;7.77;;
9178;SDS011;4624;48.126;11.546;2022-12-16T02:23:48;10.63;;;7.87;;
9178;SDS011;4624;48.126;11.546;2022-12-16T02:26:55;10.37;;;7.70;;
9178;SDS011;4624;48.126;11.546;2022-12-16T02:32:49;9.70;;;7.30;;
9178;SDS011;4624;48.126;11.546;2022-12-16T02:35:26;10.27;;;7.63;;
9178;SDS011;4624;48.126;11.546;2022-12-16T02:38:03;10.57;;;7.83;;
9178;SDS011;4624;48.126;11.546;2022-12-16T02:40:40;9.23;;;7.20;;
9178;SDS011;4624;48.126;11.546;2022-12-16T02:43:12;11.20;;;8.20;;
9178;SDS011;4624;48.126;11.546;2022-12-16T02:45:45;10.30;;;7.40;;
9178;SDS011;4624;48.126;11.546;2022-12-16T02:48:12;10.70;;;8.30;;
9178;SDS011;4624;48.126;11.546;2022-12-16T02:50:40;10.40;;;8.20;;
9178;SDS011;4624;48.126;11.546;2022-12-16T02:53:10;10.83;;;8.40;;
9178;SDS011;4624;48.126;11.546;2022-12-16T02:55:40;10.07;;;7.90;;
9178;SDS011;4624;48.126;11.546;2022-12-16T02:58:17;9.40;;;7.80;;
9178;SDS011;4624;48.126;11.546;2022-12-16T03:00:55;11.67;;;8.20;;
9178;SDS011;4624;48.126;11.546;2022-12-16T03:03:29;11.20;;;8.73;;
9178;SDS011;4624;48.126;11.546;2022-12-16T03:06:02;13.33;;;9.97;;
9178;SDS011;4624;48.126;11.546;2022-12-16T03:08:31;12.90;;;9.87;;
9178;SDS011;4624;48.126;11.546;2022-12-16T03:11:03;11.70;;;9.10;;
9178;SDS011;4624;48.126;11.546;2022-12-16T03:13:33;12.00;;;9.33;;
9178;SDS011;4624;48.126;11.546;2022-12-16T03:16:05;13.00;;;9.03;;
9178;SDS011;4624;48.126;11.546;2022-12-16T03:18:35;12.00;;;9.33;;
9178;SDS011;4624;48.126;11.546;2022-12-16T03:21:04;15.97;;;10.80;;
9178;SDS011;4624;48.126;11.546;2022-12-16T03:23:34;15.43;;;10.73;;
9178;SDS011;4624;48.126;11.546;2022-12-16T03:26:07;12.53;;;10.60;;
9178;SDS011;4624;48.126;11.546;2022-12-16T03:28:42;13.30;;;10.30;;
9178;SDS011;4624;48.126;11.546;2022-12-16T03:31:16;12.40;;;9.87;;
9178;SDS011;4624;48.126;11.546;2022-12-16T03:33:52;13.00;;;9.43;;
9178;SDS011;4624;48.126;11.546;2022-12-16T03:36:22;11.90;;;10.60;;
9178;SDS011;4624;48.126;11.546;2022-12-16T03:38:51;11.43;;;9.53;;
9178;SDS011;4624;48.126;11.546;2022-12-16T03:41:20;11.37;;;9.87;;
9178;SDS011;4624;48.126;11.546;2022-12-16T03:43:48;13.07;;;10.43;;
9178;SDS011;4624;48.126;11.546;2022-12-16T03:46:18;13.27;;;10.60;;
9178;SDS011;4624;48.126;11.546;2022-12-16T03:48:45;15.67;;;10.57;;
9178;SDS011;4624;48.126;11.546;2022-12-16T03:51:13;14.53;;;11.40;;
9178;SDS011;4624;48.126;11.546;2022-12-16T03:53:40;15.80;;;10.73;;
9178;SDS011;4624;48.126;11.546;2022-12-16T03:56:07;14.57;;;10.70;;
9178;SDS011;4624;48.126;11.546;2022-12-16T03:58:34;15.07;;;10.87;;
9178;SDS011;4624;48.126;11.546;2022-12-16T04:01:03;15.07;;;10.90;;
9178;SDS011;4624;48.126;11.546;2022-12-16T04:03:32;13.37;;;11.67;;
9178;SDS011;4624;48.126;11.546;2022-12-16T04:05:59;14.27;;;11.10;;
9178;SDS011;4624;48.126;11.546;2022-12-16T04:08:25;15.10;;;11.53;;
9178;SDS011;4624;48.126;11.546;2022-12-16T04:10:55;17.07;;;11.57;;
9178;SDS011;4624;48.126;11.546;2022-12-16T04:13:39;16.63;;;12.20;;
9178;SDS011;4624;48.126;11.546;2022-12-16T04:16:24;18.33;;;12.37;;
9178;SDS011;4624;48.126;11.546;2022-12-16T04:19:13;16.73;;;12.60;;
9178;SDS011;4624;48.126;11.546;2022-12-16T04:22:02;16.30;;;13.10;;
9178;SDS011;4624;48.126;11.546;2022-12-16T04:24:46;17.90;;;13.93;;
9178;SDS011;4624;48.126;11.546;2022-12-16T04:27:13;17.87;;;13.37;;
9178;SDS011;4624;48.126;11.546;2022-12-16T04:29:53;17.27;;;12.73;;
9178;SDS011;4624;48.126;11.546;2022-12-16T04:32:37;18.63;;;14.40;;
9178;SDS011;4624;48.126;11.546;2022-12-16T04:35:23;21.33;;;14.10;;
9178;SDS011;4624;48.126;11.546;2022-12-16T04:38:07;21.13;;;14.50;;
9178;SDS011;4624;48.126;11.546;2022-12-16T04:40:52;20.50;;;14.47;;
9178;SDS011;4624;48.126;11.546;2022-12-16T04:43:36;21.20;;;14.47;;
9178;SDS011;4624;48.126;11.546;2022-12-16T04:46:21;18.90;;;14.73;;
9178;SDS011;4624;48.126;11.546;2022-12-16T04:49:05;20.40;;;14.60;;
9178;SDS011;4624;48.126;11.546;2022-12-16T04:51:50;19.40;;;14.37;;
9178;SDS011;4624;48.126;11.546;2022-12-16T04:54:34;20.73;;;14.43;;
9178;SDS011;4624;48.126;11.546;2022-12-16T04:57:18;21.40;;;15.03;;
9178;SDS011;4624;48.126;11.546;2022-12-16T05:00:03;19.83;;;15.27;;
9178;SDS011;4624;48.126;11.546;2022-12-16T05:02:48;20.50;;;14.87;;
9178;SDS011;4624;48.126;11.546;2022-12-16T05:05:33;21.10;;;15.27;;
9178;SDS011;4624;48.126;11.546;2022-12-16T05:08:18;20.97;;;15.20;;
9178;SDS011;4624;48.126;11.546;2022-12-16T05:11:03;20.53;;;15.10;;
9178;SDS011;4624;48.126;11.546;2022-12-16T05:13:47;23.00;;;14.57;;
9178;SDS011;4624;48.126;11.546;2022-12-16T05:16:31;22.07;;;15.07;;
9178;SDS011;4624;48.126;11.546;2022-12-16T05:19:16;19.47;;;14.20;;
9178;SDS011;4624;48.126;11.546;2022-12-16T05:22:00;20.47;;;15.13;;
9178;SDS011;4624;48.126;11.546;2022-12-16T05:24:45;24.70;;;15.73;;
9178;SDS011;4624;48.126;11.546;2022-12-16T05:27:29;24.47;;;16.13;;
9178;SDS011;4624;48.126;11.546;2022-12-16T05:30:14;24.13;;;16.53;;
9178;SDS011;4624;48.126;11.546;2022-12-16T05:32:58;21.93;;;16.13;;
9178;SDS011;4624;48.126;11.546;2022-12-16T05:35:42;24.97;;;16.20;;
9178;SDS011;4624;48.126;11.546;2022-12-16T05:38:26;23.37;;;15.97;;
9178;SDS011;4624;48.126;11.546;2022-12-16T05:41:12;22.10;;;15.63;;
9178;SDS011;4624;48.126;11.546;2022-12-16T05:43:56;23.70;;;15.77;;
9178;SDS011;4624;48.126;11.546;2022-12-16T05:46:40;22.93;;;16.20;;
9178;SDS011;4624;48.126;11.546;2022-12-16T05:49:24;23.63;;;16.80;;
9178;SDS011;4624;48.126;11.546;2022-12-16T05:52:08;24.07;;;16.20;;
9178;SDS011;4624;48.126;11.546;2022-12-16T05:54:53;24.57;;;17.50;;
9178;SDS011;4624;48.126;11.546;2022-12-16T05:57:38;20.87;;;15.83;;
9178;SDS011;4624;48.126;11.546;2022-12-16T06:00:22;23.00;;;16.20;;
9178;SDS011;4624;48.126;11.546;2022-12-16T06:03:06;25.83;;;17.63;;
9178;SDS011;4624;48.126;11.546;2022-12-16T06:05:50;26.97;;;17.63;;
9178;SDS011;4624;48.126;11.546;2022-12-16T06:08:34;26.57;;;18.67;;
9178;SDS011;4624;48.126;11.546;2022-12-16T06:11:19;29.13;;;19.77;;
9178;SDS011;4624;48.126;11.546;2022-12-16T06:14:04;31.03;;;18.63;;
9178;SDS011;4624;48.126;11.546;2022-12-16T06:16:48;29.23;;;18.97;;
9178;SDS011;4624;48.126;11.546;2022-12-16T06:19:32;30.33;;;20.87;;
9178;SDS011;4624;48.126;11.546;2022-12-16T06:22:17;25.10;;;17.87;;
9178;SDS011;4624;48.126;11.546;2022-12-16T06:25:01;30.70;;;20.13;;
9178;SDS011;4624;48.126;11.546;2022-12-16T06:27:48;32.60;;;20.33;;
9178;SDS011;4624;48.126;11.546;2022-12-16T06:30:35;29.50;;;18.93;;
9178;SDS011;4624;48.126;11.546;2022-12-16T06:33:20;31.13;;;20.73;;
9178;SDS011;4624;48.126;11.546;2022-12-16T06:36:01;27.40;;;18.27;;
9178;SDS011;4624;48.126;11.546;2022-12-16T06:38:46;31.37;;;20.33;;
9178;SDS011;4624;48.126;11.546;2022-12-16T06:41:30;33.07;;;19.87;;
9178;SDS011;4624;48.126;11.546;2022-12-16T06:44:15;27.13;;;18.90;;
9178;SDS011;4624;48.126;11.546;2022-12-16T06:47:00;30.10;;;20.27;;
9178;SDS011;4624;48.126;11.546;2022-12-16T06:49:45;32.90;;;20.77;;
9178;SDS011;4624;48.126;11.546;2022-12-16T06:52:30;33.10;;;21.30;;
9178;SDS011;4624;48.126;11.546;2022-12-16T06:55:10;30.93;;;21.03;;
9178;SDS011;4624;48.126;11.546;2022-12-16T06:57:55;30.67;;;20.50;;
9178;SDS011;4624;48.126;11.546;2022-12-16T07:00:40;31.10;;;20.07;;
9178;SDS011;4624;48.126;11.546;2022-12-16T07:03:26;31.07;;;20.87;;
9178;SDS011;4624;48.126;11.546;2022-12-16T07:06:10;33.83;;;21.23;;
9178;SDS011;4624;48.126;11.546;2022-12-16T07:08:54;31.30;;;20.63;;
9178;SDS011;4624;48.126;11.546;2022-12-16T07:11:38;32.33;;;20.77;;
9178;SDS011;4624;48.126;11.546;2022-12-16T07:14:22;31.80;;;21.10;;
9178;SDS011;4624;48.126;11.546;2022-12-16T07:17:07;32.73;;;19.70;;
9178;SDS011;4624;48.126;11.546;2022-12-16T07:19:52;34.47;;;21.30;;
9178;SDS011;4624;48.126;11.546;2022-12-16T07:22:36;35.63;;;21.67;;
9178;SDS011;4624;48.126;11.546;2022-12-16T07:25:24;34.67;;;22.17;;
9178;SDS011;4624;48.126;11.546;2022-12-16T07:28:08;34.17;;;21.73;;
9178;SDS011;4624;48.126;11.546;2022-12-16T07:30:52;36.40;;;22.13;;
9178;SDS011;4624;48.126;11.546;2022-12-16T07:33:37;34.03;;;21.43;;
9178;SDS011;4624;48.126;11.546;2022-12-16T07:36:23;33.63;;;21.70;;
9178;SDS011;4624;48.126;11.546;2022-12-16T07:39:08;34.27;;;21.20;;
9178;SDS011;4624;48.126;11.546;2022-12-16T07:41:52;34.57;;;22.53;;
9178;SDS011;4624;48.126;11.546;2022-12-16T07:44:36;33.47;;;20.70;;
9178;SDS011;4624;48.126;11.546;2022-12-16T07:47:20;32.80;;;21.50;;
9178;SDS011;4624;48.126;11.546;2022-12-16T07:50:04;34.40;;;21.17;;
9178;SDS011;4624;48.126;11.546;2022-12-16T07:52:53;33.23;;;21.20;;
9178;SDS011;4624;48.126;11.546;2022-12-16T07:55:38;32.37;;;20.80;;
9178;SDS011;4624;48.126;11.546;2022-12-16T07:58:22;30.07;;;19.43;;
9178;SDS011;4624;48.126;11.546;2022-12-16T08:01:11;29.43;;;19.20;;
9178;SDS011;4624;48.126;11.546;2022-12-16T08:03:56;28.57;;;19.33;;
9178;SDS011;4624;48.126;11.546;2022-12-16T08:06:40;32.60;;;19.73;;
9178;SDS011;4624;48.126;11.546;2022-12-16T08:09:26;33.87;;;20.83;;
9178;SDS011;4624;48.126;11.546;2022-12-16T08:12:10;31.77;;;20.17;;
9178;SDS011;4624;48.126;11.546;2022-12-16T08:14:54;30.73;;;19.17;;
9178;SDS011;4624;48.126;11.546;2022-12-16T08:17:40;26.73;;;18.90;;
9178;SDS011;4624;48.126;11.546;2022-12-16T08:20:30;29.77;;;18.97;;
9178;SDS011;4624;48.126;11.546;2022-12-16T08:23:14;32.13;;;19.70;;
9178;SDS011;4624;48.126;11.546;2022-12-16T08:26:00;30.17;;;19.67;;
9178;SDS011;4624;48.126;11.546;2022-12-16T08:28:44;31.20;;;20.37;;
9178;SDS011;4624;48.126;11.546;2022-12-16T08:31:28;30.40;;;20.43;;
9178;SDS011;4624;48.126;11.546;2022-12-16T08:34:12;31.13;;;20.20;;
9178;SDS011;4624;48.126;11.546;2022-12-16T08:36:56;30.77;;;19.90;;
9178;SDS011;4624;48.126;11.546;2022-12-16T08:39:48;30.03;;;20.77;;
9178;SDS011;4624;48.126;11.546;2022-12-16T08:42:34;29.43;;;19.80;;
9178;SDS011;4624;48.126;11.546;2022-12-16T08:45:18;28.80;;;19.53;;
9178;SDS011;4624;48.126;11.546;2022-12-16T08:48:03;30.23;;;18.27;;
9178;SDS011;4624;48.126;11.546;2022-12-16T08:50:47;28.63;;;20.00;;
9178;SDS011;4624;48.126;11.546;2022-12-16T08:53:31;29.90;;;19.03;;
9178;SDS011;4624;48.126;11.546;2022-12-16T08:56:16;26.07;;;19.40;;
9178;SDS011;4624;48.126;11.546;2022-12-16T08:59:01;29.20;;;19.70;;
9178;SDS011;4624;48.126;11.546;2022-12-16T09:01:45;30.93;;;19.23;;
9178;SDS011;4624;48.126;11.546;2022-12-16T09:04:29;27.70;;;19.17;;
9178;SDS011;4624;48.126;11.546;2022-12-16T09:07:14;29.20;;;19.40;;
9178;SDS011;4624;48.126;11.546;2022-12-16T09:09:58;29.50;;;18.77;;
9178;SDS011;4624;48.126;11.546;2022-12-16T09:12:42;28.67;;;18.83;;
9178;SDS011;4624;48.126;11.546;2022-12-16T09:15:28;28.27;;;19.20;;
9178;SDS011;4624;48.126;11.546;2022-12-16T09:18:13;29.10;;;19.00;;
9178;SDS011;4624;48.126;11.546;2022-12-16T09:20:57;30.23;;;19.40;;
9178;SDS011;4624;48.126;11.546;2022-12-16T09:23:40;27.50;;;18.57;;
9178;SDS011;4624;48.126;11.546;2022-12-16T09:26:30;29.50;;;19.13;;
9178;SDS011;4624;48.126;11.546;2022-12-16T09:29:14;29.63;;;18.57;;
9178;SDS011;4624;48.126;11.546;2022-12-16T09:32:00;29.57;;;18.40;;
9178;SDS011;4624;48.126;11.546;2022-12-16T09:34:44;28.53;;;18.07;;
9178;SDS011;4624;48.126;11.546;2022-12-16T09:37:28;25.27;;;17.77;;
9178;SDS011;4624;48.126;11.546;2022-12-16T09:40:12;28.93;;;19.70;;
9178;SDS011;4624;48.126;11.546;2022-12-16T09:42:59;28.17;;;17.73;;
9178;SDS011;4624;48.126;11.546;2022-12-16T09:45:51;31.47;;;19.80;;
9178;SDS011;4624;48.126;11.546;2022-12-16T09:48:44;26.93;;;18.03;;
9178;SDS011;4624;48.126;11.546;2022-12-16T09:51:34;25.90;;;17.13;;
9178;SDS011;4624;48.126;11.546;2022-12-16T09:54:19;23.40;;;16.60;;
9178;SDS011;4624;48.126;11.546;2022-12-16T09:57:09;23.47;;;16.00;;
9178;SDS011;4624;48.126;11.546;2022-12-16T09:59:56;26.37;;;17.17;;
9178;SDS011;4624;48.126;11.546;2022-12-16T10:02:44;22.97;;;16.47;;
9178;SDS011;4624;48.126;11.546;2022-12-16T10:05:34;25.27;;;16.53;;
9178;SDS011;4624;48.126;11.546;2022-12-16T10:08:29;23.47;;;16.70;;
9178;SDS011;4624;48.126;11.546;2022-12-16T10:11:20;25.43;;;16.83;;
9178;SDS011;4624;48.126;11.546;2022-12-16T10:14:11;24.33;;;17.33;;
9178;SDS011;4624;48.126;11.546;2022-12-16T10:17:02;30.07;;;17.20;;
9178;SDS011;4624;48.126;11.546;2022-12-16T10:19:54;28.10;;;17.77;;
9178;SDS011;4624;48.126;11.546;2022-12-16T10:22:45;27.73;;;18.20;;
9178;SDS011;4624;48.126;11.546;2022-12-16T10:25:37;26.50;;;18.17;;
9178;SDS011;4624;48.126;11.546;2022-12-16T10:28:29;26.83;;;18.70;;
9178;SDS011;4624;48.126;11.546;2022-12-16T10:31:25;31.87;;;21.03;;
9178;SDS011;4624;48.126;11.546;2022-12-16T10:34:10;28.13;;;18.40;;
9178;SDS011;4624;48.126;11.546;2022-12-16T10:36:57;28.63;;;19.17;;
9178;SDS011;4624;48.126;11.546;2022-12-16T10:39:45;28.93;;;19.33;;
9178;SDS011;4624;48.126;11.546;2022-12-16T10:42:34;29.17;;;18.80;;
9178;SDS011;4624;48.126;11.546;2022-12-16T10:45:23;28.80;;;18.40;;
9178;SDS011;4624;48.126;11.546;2022-12-16T10:48:10;26.60;;;18.37;;
9178;SDS011;4624;48.126;11.546;2022-12-16T10:50:51;27.90;;;18.90;;
9178;SDS011;4624;48.126;11.546;2022-12-16T10:53:36;27.30;;;17.97;;
9178;SDS011;4624;48.126;11.546;2022-12-16T10:56:26;26.37;;;17.80;;
9178;SDS011;4624;48.126;11.546;2022-12-16T10:59:19;26.10;;;17.87;;
9178;SDS011;4624;48.126;11.546;2022-12-16T11:02:09;26.23;;;17.03;;
9178;SDS011;4624;48.126;11.546;2022-12-16T11:05:00;26.90;;;18.20;;
9178;SDS011;4624;48.126;11.546;2022-12-16T11:08:08;26.33;;;17.67;;
9178;SDS011;4624;48.126;11.546;2022-12-16T11:11:13;26.03;;;17.83;;
9178;SDS011;4624;48.126;11.546;2022-12-16T11:14:13;23.73;;;15.93;;
9178;SDS011;4624;48.126;11.546;2022-12-16T11:17:12;24.97;;;17.40;;
9178;SDS011;4624;48.126;11.546;2022-12-16T11:20:05;28.50;;;18.50;;
9178;SDS011;4624;48.126;11.546;2022-12-16T11:23:06;25.57;;;17.10;;
9178;SDS011;4624;48.126;11.546;2022-12-16T11:26:03;24.87;;;18.13;;
9178;SDS011;4624;48.126;11.546;2022-12-16T11:29:07;26.27;;;17.67;;
9178;SDS011;4624;48.126;11.546;2022-12-16T11:31:59;29.33;;;19.10;;
9178;SDS011;4624;48.126;11.546;2022-12-16T11:34:48;25.77;;;17.57;;
9178;SDS011;4624;48.126;11.546;2022-12-16T11:37:36;25.73;;;18.43;;
9178;SDS011;4624;48.126;11.546;2022-12-16T11:40:21;30.17;;;19.57;;
9178;SDS011;4624;48.126;11.546;2022-12-16T11:43:08;27.37;;;18.70;;
9178;SDS011;4624;48.126;11.546;2022-12-16T11:45:58;27.43;;;19.17;;
9178;SDS011;4624;48.126;11.546;2022-12-16T11:48:56;30.13;;;20.20;;
9178;SDS011;4624;48.126;11.546;2022-12-16T11:51:42;29.17;;;20.00;;
9178;SDS011;4624;48.126;11.546;2022-12-16T11:54:35;28.70;;;20.03;;
9178;SDS011;4624;48.126;11.546;2022-12-16T11:57:23;27.47;;;18.53;;
9178;SDS011;4624;48.126;11.546;2022-12-16T12:00:12;28.10;;;19.33;;
9178;SDS011;4624;48.126;11.546;2022-12-16T12:03:00;27.27;;;18.70;;
9178;SDS011;4624;48.126;11.546;2022-12-16T12:05:51;26.50;;;18.70;;
9178;SDS011;4624;48.126;11.546;2022-12-16T12:08:44;25.70;;;18.10;;
9178;SDS011;4624;48.126;11.546;2022-12-16T12:11:34;25.33;;;19.10;;
9178;SDS011;4624;48.126;11.546;2022-12-16T12:14:27;26.70;;;17.50;;
9178;SDS011;4624;48.126;11.546;2022-12-16T12:17:18;29.17;;;19.17;;
9178;SDS011;4624;48.126;11.546;2022-12-16T12:20:19;29.13;;;18.83;;
9178;SDS011;4624;48.126;11.546;2022-12-16T12:23:13;26.40;;;18.37;;
9178;SDS011;4624;48.126;11.546;2022-12-16T12:26:09;27.10;;;18.67;;
9178;SDS011;4624;48.126;11.546;2022-12-16T12:28:58;29.40;;;19.53;;
9178;SDS011;4624;48.126;11.546;2022-12-16T12:31:50;29.70;;;19.67;;
9178;SDS011;4624;48.126;11.546;2022-12-16T12:34:41;27.43;;;18.27;;
9178;SDS011;4624;48.126;11.546;2022-12-16T12:37:32;27.67;;;18.63;;
9178;SDS011;4624;48.126;11.546;2022-12-16T12:40:30;24.73;;;16.90;;
9178;SDS011;4624;48.126;11.546;2022-12-16T12:43:26;25.43;;;18.03;;
9178;SDS011;4624;48.126;11.546;2022-12-16T12:46:22;27.50;;;17.10;;
9178;SDS011;4624;48.126;11.546;2022-12-16T12:49:12;25.47;;;17.97;;
9178;SDS011;4624;48.126;11.546;2022-12-16T12:52:05;24.83;;;17.13;;
9178;SDS011;4624;48.126;11.546;2022-12-16T12:54:58;25.23;;;16.77;;
9178;SDS011;4624;48.126;11.546;2022-12-16T12:57:47;27.50;;;17.30;;
9178;SDS011;4624;48.126;11.546;2022-12-16T13:00:30;23.90;;;17.43;;
9178;SDS011;4624;48.126;11.546;2022-12-16T13:03:21;24.13;;;16.23;;
9178;SDS011;4624;48.126;11.546;2022-12-16T13:06:13;26.03;;;16.33;;
9178;SDS011;4624;48.126;11.546;2022-12-16T13:08:59;25.70;;;17.80;;
9178;SDS011;4624;48.126;11.546;2022-12-16T13:15:05;24.00;;;16.47;;
9178;SDS011;4624;48.126;11.546;2022-12-16T13:24:31;26.27;;;17.60;;
9178;SDS011;4624;48.126;11.546;2022-12-16T13:27:23;23.77;;;16.53;;
9178;SDS011;4624;48.126;11.546;2022-12-16T13:30:19;25.20;;;17.33;;
9178;SDS011;4624;48.126;11.546;2022-12-16T13:33:06;24.23;;;16.00;;
9178;SDS011;4624;48.126;11.546;2022-12-16T13:36:04;23.57;;;16.67;;
9178;SDS011;4624;48.126;11.546;2022-12-16T13:38:55;22.63;;;15.67;;
9178;SDS011;4624;48.126;11.546;2022-12-16T13:41:49;29.83;;;17.93;;
9178;SDS011;4624;48.126;11.546;2022-12-16T13:44:55;23.90;;;16.23;;
9178;SDS011;4624;48.126;11.546;2022-12-16T13:48:03;23.80;;;15.43;;
9178;SDS011;4624;48.126;11.546;2022-12-16T13:51:07;23.97;;;17.23;;
9178;SDS011;4624;48.126;11.546;2022-12-16T13:53:51;24.67;;;16.27;;
9178;SDS011;4624;48.126;11.546;2022-12-16T13:56:38;22.97;;;15.40;;
9178;SDS011;4624;48.126;11.546;2022-12-16T13:59:25;21.33;;;15.97;;
9178;SDS011;4624;48.126;11.546;2022-12-16T14:02:16;22.27;;;16.00;;
9178;SDS011;4624;48.126;11.546;2022-12-16T14:05:13;23.80;;;15.87;;
9178;SDS011;4624;48.126;11.546;2022-12-16T14:08:01;22.43;;;15.70;;
9178;SDS011;4624;48.126;11.546;2022-12-16T14:10:47;20.83;;;15.43;;
9178;SDS011;4624;48.126;11.546;2022-12-16T14:13:40;21.57;;;16.00;;
9178;SDS011;4624;48.126;11.546;2022-12-16T14:16:32;25.77;;;16.90;;
9178;SDS011;4624;48.126;11.546;2022-12-16T14:19:25;23.97;;;16.23;;
9178;SDS011;4624;48.126;11.546;2022-12-16T14:22:22;23.67;;;16.00;;
9178;SDS011;4624;48.126;11.546;2022-12-16T14:25:15;22.57;;;15.80;;
9178;SDS011;4624;48.126;11.546;2022-12-16T14:28:06;20.33;;;14.73;;
9178;SDS011;4624;48.126;11.546;2022-12-16T14:31:03;23.53;;;16.90;;
9178;SDS011;4624;48.126;11.546;2022-12-16T14:33:51;21.43;;;15.87;;
9178;SDS011;4624;48.126;11.546;2022-12-16T14:36:38;23.23;;;15.63;;
9178;SDS011;4624;48.126;11.546;2022-12-16T14:39:26;24.27;;;15.90;;
9178;SDS011;4624;48.126;11.546;2022-12-16T14:42:14;21.07;;;15.30;;
9178;SDS011;4624;48.126;11.546;2022-12-16T14:45:01;25.20;;;16.17;;
9178;SDS011;4624;48.126;11.546;2022-12-16T14:47:42;21.13;;;14.80;;
9178;SDS011;4624;48.126;11.546;2022-12-16T14:50:38;23.37;;;14.73;;
9178;SDS011;4624;48.126;11.546;2022-12-16T14:53:29;22.37;;;14.90;;
9178;SDS011;4624;48.126;11.546;2022-12-16T14:56:15;20.87;;;14.83;;
9178;SDS011;4624;48.126;11.546;2022-12-16T14:59:08;22.13;;;15.20;;
9178;SDS011;4624;48.126;11.546;2022-12-16T15:01:56;22.43;;;15.10;;
9178;SDS011;4624;48.126;11.546;2022-12-16T15:04:47;20.73;;;14.10;;
9178;SDS011;4624;48.126;11.546;2022-12-16T15:07:32;20.83;;;15.40;;
9178;SDS011;4624;48.126;11.546;2022-12-16T15:10:21;26.10;;;16.97;;
9178;SDS011;4624;48.126;11.546;2022-12-16T15:13:10;21.63;;;15.00;;
9178;SDS011;4624;48.126;11.546;2022-12-16T15:15:59;19.17;;;14.23;;
9178;SDS011;4624;48.126;11.546;2022-12-16T15:18:44;22.00;;;16.10;;
9178;SDS011;4624;48.126;11.546;2022-12-16T15:21:32;22.23;;;14.37;;
9178;SDS011;4624;48.126;11.546;2022-12-16T15:24:25;22.63;;;15.70;;
9178;SDS011;4624;48.126;11.546;2022-12-16T15:27:14;22.87;;;15.97;;
9178;SDS011;4624;48.126;11.546;2022-12-16T15:33:17;22.23;;;14.80;;
9178;SDS011;4624;48.126;11.546;2022-12-16T15:36:03;22.93;;;15.27;;
9178;SDS011;4624;48.126;11.546;2022-12-16T15:38:55;23.97;;;15.33;;
9178;SDS011;4624;48.126;11.546;2022-12-16T15:41:40;20.97;;;14.60;;
9178;SDS011;4624;48.126;11.546;2022-12-16T15:44:31;20.77;;;13.87;;
9178;SDS011;4624;48.126;11.546;2022-12-16T15:47:18;23.33;;;15.63;;
9178;SDS011;4624;48.126;11.546;2022-12-16T15:50:04;20.23;;;13.30;;
9178;SDS011;4624;48.126;11.546;2022-12-16T15:52:49;20.43;;;14.30;;
9178;SDS011;4624;48.126;11.546;2022-12-16T15:55:35;23.87;;;15.60;;
9178;SDS011;4624;48.126;11.546;2022-12-16T15:58:22;22.53;;;15.30;;
9178;SDS011;4624;48.126;11.546;2022-12-16T16:01:10;22.07;;;14.03;;
9178;SDS011;4624;48.126;11.546;2022-12-16T16:03:56;21.03;;;13.60;;
9178;SDS011;4624;48.126;11.546;2022-12-16T16:06:41;20.13;;;14.13;;
9178;SDS011;4624;48.126;11.546;2022-12-16T16:09:30;19.30;;;13.67;;
9178;SDS011;4624;48.126;11.546;2022-12-16T16:12:15;20.13;;;13.37;;
9178;SDS011;4624;48.126;11.546;2022-12-16T16:15:01;20.50;;;12.93;;
9178;SDS011;4624;48.126;11.546;2022-12-16T16:17:49;18.13;;;12.17;;
9178;SDS011;4624;48.126;11.546;2022-12-16T16:20:37;17.67;;;12.40;;
9178;SDS011;4624;48.126;11.546;2022-12-16T16:23:21;19.30;;;12.83;;
9178;SDS011;4624;48.126;11.546;2022-12-16T16:26:05;17.33;;;12.60;;
9178;SDS011;4624;48.126;11.546;2022-12-16T16:28:51;20.50;;;13.60;;